Time;durP1;ratioP1;P1;durP2;ratioP2;P2;SDS_P1;SDS_P2;PMS_P1;PMS_P2;Temp;Humidity;BMP_temperature;BMP_pressure;BME280_temperature;BME280_humidity;BME280_pressure;Samples;Min_cycle;Max_cycle;Signal;HPM_P1;HPM_P2
2023/06/18 00:00:33;;;;;;;16.02;10.30;;;;;;;13.22;67.84;95962.53;2025210;29;20057;-69
2023/06/18 00:01:34;;;;;;;16.40;10.48;;;;;;;13.09;68.24;95945.91;2026100;29;20084;-70
2023/06/18 00:02:35;;;;;;;12.45;10.02;;;;;;;13.13;68.17;95957.88;2026089;29;20056;-70
2023/06/18 00:03:36;;;;;;;15.38;10.18;;;;;;;12.96;68.46;95936.22;2026033;29;20063;-70
2023/06/18 00:04:37;;;;;;;14.23;9.85;;;;;;;13.10;68.14;95958.06;2026761;29;20057;-69
2023/06/18 00:05:38;;;;;;;15.52;10.27;;;;;;;13.10;67.66;95965.88;2027040;29;20461;-70
2023/06/18 00:06:40;;;;;;;18.55;10.45;;;;;;;13.09;68.47;95956.34;2026471;29;20056;-69
2023/06/18 00:07:41;;;;;;;13.55;9.95;;;;;;;13.08;68.69;95957.28;2026152;29;20067;-70
2023/06/18 00:08:42;;;;;;;14.63;10.00;;;;;;;13.07;68.48;95963.41;2018226;29;20061;-69
2023/06/18 00:09:43;;;;;;;18.08;10.27;;;;;;;13.05;69.28;95962.69;2018446;29;20124;-69
2023/06/18 00:10:44;;;;;;;14.65;10.45;;;;;;;13.03;69.29;95963.59;2026831;29;20473;-69
2023/06/18 00:11:46;;;;;;;14.40;10.32;;;;;;;13.00;69.38;95961.16;2026982;29;20461;-70
2023/06/18 00:12:47;;;;;;;17.35;11.40;;;;;;;12.98;69.08;95952.59;2026368;29;20053;-70
2023/06/18 00:13:48;;;;;;;14.80;11.57;;;;;;;12.97;69.94;95963.13;2026639;29;20060;-69
2023/06/18 00:14:49;;;;;;;15.40;10.77;;;;;;;12.94;69.37;95953.72;2027059;29;20052;-70
2023/06/18 00:15:50;;;;;;;13.75;10.38;;;;;;;12.94;70.16;95963.31;2026280;29;20056;-70
2023/06/18 00:16:52;;;;;;;14.60;11.18;;;;;;;12.92;70.13;95960.78;2026500;29;20370;-70
2023/06/18 00:17:53;;;;;;;14.50;10.80;;;;;;;12.90;70.05;95965.22;2026042;29;20060;-70
2023/06/18 00:18:54;;;;;;;13.60;10.55;;;;;;;12.90;70.36;95964.38;2026400;29;20075;-70
2023/06/18 00:19:55;;;;;;;15.13;10.82;;;;;;;12.81;70.81;95952.72;2026380;29;20052;-70
2023/06/18 00:20:59;;;;;;;16.13;10.88;;;;;;;12.87;70.95;95961.97;2026156;29;20052;-69
2023/06/18 00:22:00;;;;;;;15.45;10.63;;;;;;;12.87;70.54;95967.16;2026719;29;20044;-69
2023/06/18 00:23:01;;;;;;;15.70;11.10;;;;;;;12.87;70.86;95975.00;2026092;29;20067;-70
2023/06/18 00:24:03;;;;;;;15.02;10.90;;;;;;;12.88;70.94;95968.84;2027109;29;20069;-70
2023/06/18 00:25:08;;;;;;;15.50;10.50;;;;;;;12.80;70.86;95958.84;2026763;29;20056;-69
2023/06/18 00:26:09;;;;;;;13.75;10.75;;;;;;;12.86;71.85;95966.34;2026304;29;20056;-69
2023/06/18 00:27:10;;;;;;;16.08;11.15;;;;;;;12.84;71.30;95965.56;2026699;29;20064;-71
2023/06/18 00:28:11;;;;;;;13.23;10.77;;;;;;;12.75;71.19;95958.25;2026399;29;20075;-70
2023/06/18 00:29:13;;;;;;;15.70;11.00;;;;;;;12.80;71.86;95971.88;2026788;29;20041;-69
2023/06/18 00:30:14;;;;;;;17.67;11.13;;;;;;;12.79;71.84;95970.22;2026434;29;20056;-70
2023/06/18 00:31:15;;;;;;;15.60;10.40;;;;;;;12.78;71.96;95965.94;2026815;29;20048;-69
2023/06/18 00:32:16;;;;;;;14.38;11.07;;;;;;;12.76;71.78;95968.63;2026583;29;20068;-69
2023/06/18 00:33:17;;;;;;;14.65;10.60;;;;;;;12.73;71.39;95962.75;2026763;29;20054;-70
2023/06/18 00:34:18;;;;;;;18.05;11.35;;;;;;;12.72;71.46;95955.84;2026598;29;20055;-68
2023/06/18 00:35:20;;;;;;;18.20;11.88;;;;;;;12.72;71.21;95966.25;2018546;29;20425;-69
2023/06/18 00:36:26;;;;;;;16.02;11.68;;;;;;;12.69;71.51;95956.84;2010194;29;20053;-68
2023/06/18 00:37:27;;;;;;;18.63;11.55;;;;;;;12.64;70.74;95948.44;2011305;29;20049;-69
2023/06/18 00:38:29;;;;;;;14.63;11.05;;;;;;;12.69;71.49;95967.28;2010850;29;20049;-70
2023/06/18 00:39:30;;;;;;;14.82;11.00;;;;;;;12.66;71.61;95949.22;2018203;29;20056;-69
2023/06/18 00:40:31;;;;;;;15.73;11.75;;;;;;;12.69;71.25;95956.84;2026530;29;20067;-70
2023/06/18 00:41:32;;;;;;;20.88;11.98;;;;;;;12.67;70.89;95963.06;2026225;29;20044;-69
2023/06/18 00:42:33;;;;;;;16.10;11.23;;;;;;;12.68;71.17;95967.38;2017994;29;20389;-70
2023/06/18 00:43:34;;;;;;;13.80;11.40;;;;;;;12.66;70.91;95966.59;2010264;29;20064;-69
2023/06/18 00:44:40;;;;;;;15.73;11.15;;;;;;;12.63;70.63;95957.19;2010751;29;20058;-69
2023/06/18 00:45:41;;;;;;;16.48;11.50;;;;;;;12.55;70.91;95943.75;2018381;29;20045;-70
2023/06/18 00:46:46;;;;;;;14.98;10.95;;;;;;;12.63;71.22;95958.97;2026575;29;20072;-70
2023/06/18 00:47:48;;;;;;;18.50;10.63;;;;;;;12.74;70.57;95961.81;2018040;29;20064;-69
2023/06/18 00:48:49;;;;;;;14.98;11.25;;;;;;;12.70;69.90;95955.09;2018179;29;20064;-69
2023/06/18 00:49:50;;;;;;;17.40;12.15;;;;;;;12.68;70.17;95957.78;2017908;29;20060;-69
2023/06/18 00:50:54;;;;;;;19.85;11.73;;;;;;;12.65;70.68;95952.75;2018351;29;20052;-69
2023/06/18 00:51:55;;;;;;;16.27;11.85;;;;;;;12.55;70.85;95947.19;2010487;29;20057;-69
2023/06/18 00:52:59;;;;;;;18.73;11.48;;;;;;;12.63;70.43;95964.19;2010751;29;20045;-69
2023/06/18 00:54:01;;;;;;;15.05;11.35;;;;;;;12.61;70.96;95963.41;2018328;29;20064;-69
2023/06/18 00:55:02;;;;;;;14.82;11.38;;;;;;;12.60;70.59;95957.38;2011089;29;20125;-69
2023/06/18 00:56:04;;;;;;;15.63;11.15;;;;;;;12.61;70.78;95963.41;2018155;29;20056;-69
2023/06/18 00:57:08;;;;;;;14.93;10.95;;;;;;;12.61;70.78;95961.66;2026234;29;20373;-69
2023/06/18 00:58:09;;;;;;;16.27;11.50;;;;;;;12.61;69.62;95964.25;2026561;29;20079;-69
2023/06/18 00:59:10;;;;;;;14.60;11.50;;;;;;;12.52;70.09;95949.97;2017920;29;20049;-69
2023/06/18 01:00:12;;;;;;;16.95;11.82;;;;;;;12.61;70.11;95958.22;2017934;29;20037;-70
2023/06/18 01:01:14;;;;;;;17.20;11.68;;;;;;;12.60;69.56;95959.16;2026110;29;20517;-69
2023/06/18 01:02:23;;;;;;;18.73;12.18;;;;;;;12.56;69.83;95966.28;2017528;29;20053;-70
2023/06/18 01:03:27;;;;;;;16.50;11.95;;;;;;;12.53;69.76;95962.06;2018052;29;20049;-71
2023/06/18 01:04:32;;;;;;;17.15;11.75;;;;;;;12.50;70.06;95957.03;2018007;29;20072;-69
2023/06/18 01:05:33;;;;;;;20.27;13.00;;;;;;;12.38;70.58;95943.88;2002970;29;20050;-71
2023/06/18 01:06:34;;;;;;;18.60;11.90;;;;;;;12.46;70.90;95952.09;2010791;29;20064;-69
2023/06/18 01:07:39;;;;;;;13.85;11.77;;;;;;;12.43;70.85;95950.50;2017988;29;20049;-69
2023/06/18 01:08:40;;;;;;;16.23;11.50;;;;;;;12.43;71.15;95958.31;2017630;29;20191;-69
2023/06/18 01:09:41;;;;;;;16.63;12.73;;;;;;;12.40;71.20;95952.41;2018285;29;20056;-69
2023/06/18 01:10:43;;;;;;;17.02;12.25;;;;;;;12.35;71.16;95948.31;2010300;29;20060;-69
2023/06/18 01:11:45;;;;;;;18.10;12.30;;;;;;;12.36;70.68;95951.75;2010229;29;20053;-69
2023/06/18 01:12:48;;;;;;;16.42;12.32;;;;;;;12.25;71.08;95938.50;2017656;29;20040;-69
2023/06/18 01:13:52;;;;;;;19.20;12.95;;;;;;;12.28;71.08;95938.31;2017844;29;20057;-69
2023/06/18 01:14:55;;;;;;;19.40;12.50;;;;;;;12.21;71.29;95932.59;2010586;29;20045;-69
2023/06/18 01:16:06;;;;;;;18.77;12.80;;;;;;;12.30;71.52;95949.50;2002781;29;20165;-69
2023/06/18 01:17:08;;;;;;;20.67;13.75;;;;;;;12.30;71.63;95955.53;2012016;29;20045;-68
2023/06/18 01:18:09;;;;;;;21.48;12.25;;;;;;;12.27;70.98;95949.63;2002603;29;20068;-68
2023/06/18 01:19:33;;;;;;;16.20;12.90;;;;;;;12.27;71.58;95953.09;1995366;29;20073;-68
2023/06/18 01:20:40;;;;;;;16.60;12.05;;;;;;;12.26;71.56;95950.56;1982631;29;20063;-68
2023/06/18 01:21:42;;;;;;;17.85;13.15;;;;;;;12.24;71.54;95944.59;2011152;29;20462;-68
2023/06/18 01:23:01;;;;;;;21.40;12.80;;;;;;;12.23;71.69;95950.75;1996095;29;20057;-68
2023/06/18 01:24:08;;;;;;;15.57;11.98;;;;;;;12.10;71.17;95935.78;2002290;29;20059;-68
2023/06/18 01:25:09;;;;;;;17.40;12.73;;;;;;;12.18;72.07;95950.16;2011221;29;20072;-69
2023/06/18 01:26:11;;;;;;;16.52;12.57;;;;;;;12.18;71.44;95944.94;2002262;29;20061;-69
2023/06/18 01:27:12;;;;;;;23.45;13.65;;;;;;;12.05;71.51;95929.97;2002675;29;20069;-69
2023/06/18 01:28:15;;;;;;;20.50;12.80;;;;;;;12.18;71.73;95952.75;2017983;29;20041;-68
2023/06/18 01:29:16;;;;;;;19.10;12.85;;;;;;;12.18;71.47;95953.59;2018182;29;20064;-69
2023/06/18 01:30:18;;;;;;;18.45;12.63;;;;;;;12.16;71.46;95949.38;2002902;29;20069;-68
2023/06/18 01:31:22;;;;;;;17.63;12.27;;;;;;;12.12;71.85;95943.53;2002822;29;20097;-69
2023/06/18 01:32:24;;;;;;;16.80;12.65;;;;;;;12.12;71.87;95941.75;2017786;29;20040;-69
2023/06/18 01:33:25;;;;;;;19.40;12.73;;;;;;;12.12;71.26;95946.97;2017830;29;20158;-71
2023/06/18 01:34:27;;;;;;;19.80;12.23;;;;;;;12.12;71.84;95946.97;2017830;29;20037;-69
2023/06/18 01:35:28;;;;;;;18.20;13.55;;;;;;;12.13;72.30;95943.44;2018418;29;20084;-68
2023/06/18 01:36:40;;;;;;;14.90;12.30;;;;;;;12.03;71.52;95923.19;2017349;29;20049;-69
2023/06/18 01:38:07;;;;;;;23.87;13.20;;;;;;;12.12;71.47;95949.56;2003479;29;20455;-68
2023/06/18 01:39:20;;;;;;;17.42;11.43;;;;;;;12.10;72.30;95943.59;2001645;29;20301;-68
2023/06/18 01:40:43;;;;;;;17.67;12.57;;;;;;;12.07;71.77;95948.97;2005821;29;20062;-70
2023/06/18 01:41:45;;;;;;;17.83;12.77;;;;;;;11.95;71.87;95927.97;2018071;29;20052;-69
2023/06/18 01:42:54;;;;;;;21.02;13.18;;;;;;;12.02;72.39;95945.78;2017921;29;20060;-69
2023/06/18 01:44:00;;;;;;;;;;;;;;;12.01;72.46;95945.88;2011517;29;20130;-69
2023/06/18 01:45:09;;;;;;;16.30;12.55;;;;;;;11.98;72.60;95944.28;2011113;29;19995;-68
2023/06/18 01:46:11;;;;;;;21.90;13.27;;;;;;;11.99;72.90;95945.94;2011226;29;20616;-71
2023/06/18 01:47:13;;;;;;;16.65;12.68;;;;;;;11.87;72.91;95925.78;2002506;29;20133;-70
2023/06/18 01:48:15;;;;;;;21.90;14.40;;;;;;;11.95;72.07;95951.38;1994919;29;20066;-70
2023/06/18 01:49:17;;;;;;;16.88;13.05;;;;;;;11.82;72.40;95925.16;2002666;29;20426;-70
2023/06/18 01:50:18;;;;;;;21.45;13.52;;;;;;;11.91;72.56;95940.31;2002919;29;20053;-70
2023/06/18 01:51:20;;;;;;;16.10;12.35;;;;;;;11.92;72.92;95947.19;2010509;29;20045;-70
2023/06/18 01:52:21;;;;;;;17.45;13.52;;;;;;;11.88;72.53;95935.25;2009699;29;20064;-70
2023/06/18 01:53:23;;;;;;;19.30;13.70;;;;;;;11.88;72.64;95941.31;2002289;29;20160;-70
2023/06/18 01:54:24;;;;;;;21.08;13.80;;;;;;;11.87;72.68;95942.25;1995139;29;20522;-70
2023/06/18 01:55:27;;;;;;;17.42;13.85;;;;;;;11.78;73.36;95919.25;2002617;29;20049;-70
2023/06/18 01:56:28;;;;;;;19.63;13.68;;;;;;;11.88;72.95;95943.91;1995696;29;20058;-70
2023/06/18 01:57:32;;;;;;;20.92;14.63;;;;;;;11.88;72.96;95941.31;2002255;29;20054;-70
2023/06/18 01:58:33;;;;;;;18.85;13.40;;;;;;;11.87;73.14;95933.59;2002786;29;20049;-70
2023/06/18 01:59:34;;;;;;;20.02;13.10;;;;;;;11.83;73.01;95932.03;2002025;29;20058;-70
2023/06/18 02:00:36;;;;;;;20.35;13.40;;;;;;;11.83;72.71;95939.84;2002447;29;20461;-70
2023/06/18 02:01:40;;;;;;;21.65;14.45;;;;;;;11.73;72.94;95925.63;2017569;29;20045;-70
2023/06/18 02:02:42;;;;;;;19.73;14.13;;;;;;;11.83;73.21;95939.84;2009370;29;20061;-70
2023/06/18 02:03:43;;;;;;;19.98;13.93;;;;;;;11.80;73.25;95934.81;2003012;29;20060;-70
2023/06/18 02:04:45;;;;;;;20.08;14.02;;;;;;;11.75;72.87;95937.63;2017023;29;20065;-70
2023/06/18 02:05:46;;;;;;;20.88;14.00;;;;;;;11.75;73.30;95937.63;2017862;29;20061;-69
2023/06/18 02:06:47;;;;;;;21.08;14.90;;;;;;;11.79;72.96;95933.13;2017615;29;20053;-70
2023/06/18 02:07:48;;;;;;;21.35;13.85;;;;;;;11.77;73.51;95938.41;2010123;29;20061;-70
2023/06/18 02:08:49;;;;;;;18.95;14.50;;;;;;;11.67;73.23;95919.00;2017736;29;20049;-70
2023/06/18 02:09:51;;;;;;;19.55;14.70;;;;;;;11.73;72.92;95933.44;2017489;29;20049;-70
2023/06/18 02:10:52;;;;;;;25.38;15.10;;;;;;;11.72;73.39;95937.81;2010060;29;20064;-69
2023/06/18 02:11:53;;;;;;;19.08;14.55;;;;;;;11.74;72.71;95932.53;2017662;29;20063;-70
2023/06/18 02:12:54;;;;;;;19.95;14.15;;;;;;;11.74;72.97;95929.94;2017329;29;20402;-70
2023/06/18 02:13:55;;;;;;;17.65;13.10;;;;;;;11.72;73.51;95930.00;2018170;29;20057;-70
2023/06/18 02:14:56;;;;;;;22.60;13.63;;;;;;;11.72;73.38;95932.59;2017889;29;20068;-70
2023/06/18 02:15:58;;;;;;;20.90;14.30;;;;;;;11.71;73.65;95930.94;2017645;29;20052;-70
2023/06/18 02:17:05;;;;;;;20.98;15.63;;;;;;;11.71;73.16;95925.72;2010457;29;20429;-69
2023/06/18 02:18:06;;;;;;;18.77;14.20;;;;;;;11.69;73.18;95931.00;2009900;29;20065;-70
2023/06/18 02:19:07;;;;;;;18.98;13.63;;;;;;;11.66;73.51;95930.34;2017033;29;20057;-69
2023/06/18 02:20:10;;;;;;;21.02;15.05;;;;;;;11.64;73.47;95927.81;2017826;29;20057;-70
2023/06/18 02:21:11;;;;;;;20.13;14.35;;;;;;;11.63;74.37;95926.13;2018279;29;20045;-70
2023/06/18 02:22:12;;;;;;;20.27;14.52;;;;;;;11.60;73.38;95931.50;2018221;29;20489;-70
2023/06/18 02:23:13;;;;;;;22.60;14.73;;;;;;;11.59;74.05;95931.56;2017922;29;20049;-70
2023/06/18 02:24:15;;;;;;;18.42;14.77;;;;;;;11.58;74.15;95935.94;2017282;29;20052;-70
2023/06/18 02:25:18;;;;;;;16.40;13.93;;;;;;;11.57;74.16;95936.00;2016829;29;20377;-70
2023/06/18 02:26:21;;;;;;;21.27;13.77;;;;;;;11.53;74.39;95937.94;2017223;29;20444;-70
2023/06/18 02:27:22;;;;;;;18.50;14.57;;;;;;;11.50;74.71;95926.84;2016973;29;20470;-70
2023/06/18 02:28:23;;;;;;;20.42;14.18;;;;;;;11.45;73.95;95933.13;2018009;29;20068;-70
2023/06/18 02:29:24;;;;;;;18.17;14.10;;;;;;;11.45;74.08;95940.91;2017982;29;20101;-69
2023/06/18 02:30:28;;;;;;;22.73;13.93;;;;;;;11.45;74.96;95930.53;2018329;29;20363;-70
2023/06/18 02:31:30;;;;;;;19.85;14.93;;;;;;;11.48;75.08;95932.97;2017250;29;20072;-70
2023/06/18 02:32:36;;;;;;;22.70;15.77;;;;;;;11.47;74.66;95935.66;2017274;29;20064;-70
2023/06/18 02:33:37;;;;;;;22.42;15.00;;;;;;;11.45;74.81;95924.47;2017103;29;20068;-70
2023/06/18 02:34:39;;;;;;;20.83;15.13;;;;;;;11.43;74.36;95927.16;2010166;29;20053;-70
2023/06/18 02:35:40;;;;;;;20.00;15.20;;;;;;;11.43;75.11;95929.75;2017249;29;20070;-70
2023/06/18 02:36:41;;;;;;;18.92;15.40;;;;;;;11.42;75.05;95929.84;2018177;29;20060;-70
2023/06/18 02:37:44;;;;;;;21.45;15.20;;;;;;;11.41;75.20;95926.41;2017445;29;20064;-70
2023/06/18 02:38:46;;;;;;;19.42;14.98;;;;;;;11.40;75.39;95929.09;2009373;29;20054;-70
2023/06/18 02:39:47;;;;;;;19.00;15.18;;;;;;;11.38;75.28;95921.34;2017017;29;20061;-69
2023/06/18 02:40:48;;;;;;;24.95;14.68;;;;;;;11.38;75.41;95936.94;2018098;29;20408;-70
2023/06/18 02:41:49;;;;;;;18.58;15.35;;;;;;;11.38;75.31;95920.50;2018111;29;20129;-70
2023/06/18 02:42:52;;;;;;;20.48;15.93;;;;;;;11.29;74.98;95910.59;2017266;29;20053;-69
2023/06/18 02:43:53;;;;;;;20.45;16.05;;;;;;;11.38;74.89;95923.09;2010224;29;20502;-70
2023/06/18 02:44:54;;;;;;;20.30;15.38;;;;;;;11.38;75.40;95926.53;2017421;29;20060;-70
2023/06/18 02:45:55;;;;;;;22.63;16.48;;;;;;;11.38;75.70;95928.31;2017160;29;20060;-70
2023/06/18 02:46:57;;;;;;;21.90;15.70;;;;;;;11.37;75.77;95924.88;2017347;29;20108;-70
2023/06/18 02:47:59;;;;;;;21.10;15.27;;;;;;;11.34;74.96;95929.41;2017525;29;20041;-70
2023/06/18 02:49:00;;;;;;;22.13;16.17;;;;;;;11.32;75.69;95924.28;2017532;29;20049;-70
2023/06/18 02:50:01;;;;;;;22.67;16.17;;;;;;;11.30;76.18;95933.06;2018029;29;20044;-70
2023/06/18 02:51:03;;;;;;;22.45;15.68;;;;;;;11.36;75.31;95927.53;2017316;29;20053;-70
2023/06/18 02:52:05;;;;;;;21.83;15.32;;;;;;;11.26;76.00;95922.81;2009879;29;20049;-70
2023/06/18 02:53:06;;;;;;;24.65;15.43;;;;;;;11.31;75.44;95930.41;2017067;29;20435;-71
2023/06/18 02:54:07;;;;;;;22.30;15.88;;;;;;;11.30;76.29;95931.28;2017222;29;20076;-70
2023/06/18 02:55:09;;;;;;;21.17;15.40;;;;;;;11.30;75.97;95935.66;2009584;29;20398;-69
2023/06/18 02:56:11;;;;;;;23.83;16.02;;;;;;;11.29;76.15;95939.19;2017355;29;20056;-70
2023/06/18 02:57:12;;;;;;;20.98;15.40;;;;;;;11.17;76.02;95923.31;2009506;29;20513;-70
2023/06/18 02:58:19;;;;;;;21.45;16.50;;;;;;;11.21;76.06;95935.22;2009580;29;20056;-70
2023/06/18 02:59:20;;;;;;;22.05;16.60;;;;;;;11.24;76.67;95935.06;2010396;29;20061;-70
2023/06/18 03:00:21;;;;;;;19.80;15.55;;;;;;;11.23;76.33;95929.94;2009037;29;20061;-69
2023/06/18 03:01:25;;;;;;;21.20;14.35;;;;;;;11.14;76.79;95918.25;2017413;29;20454;-69
2023/06/18 03:02:27;;;;;;;17.55;15.07;;;;;;;11.26;75.86;95933.22;2016654;29;20060;-70
2023/06/18 03:03:28;;;;;;;18.77;14.77;;;;;;;11.26;75.89;95933.22;2009494;29;20132;-69
2023/06/18 03:04:32;;;;;;;21.13;15.10;;;;;;;11.26;75.41;95927.19;2010205;29;20383;-70
2023/06/18 03:05:33;;;;;;;20.40;15.73;;;;;;;11.27;75.58;95934.91;2009629;29;20060;-70
2023/06/18 03:06:35;;;;;;;19.00;14.60;;;;;;;11.18;75.59;95914.59;2009564;29;20060;-70
2023/06/18 03:07:37;;;;;;;21.35;16.02;;;;;;;11.25;75.45;95923.75;2016855;29;20060;-70
2023/06/18 03:08:38;;;;;;;22.38;15.82;;;;;;;11.25;75.78;95930.69;2017136;29;20509;-70
2023/06/18 03:09:39;;;;;;;20.63;15.32;;;;;;;11.22;75.27;95931.69;2009314;29;20414;-70
2023/06/18 03:10:42;;;;;;;22.63;16.05;;;;;;;11.23;75.23;95929.94;2009273;29;20445;-69
2023/06/18 03:11:43;;;;;;;19.60;15.38;;;;;;;11.26;75.32;95933.22;2009705;29;20054;-69
2023/06/18 03:12:45;;;;;;;20.90;15.57;;;;;;;11.33;75.15;95935.50;2009649;29;20065;-58
2023/06/18 03:14:00;;;;;;;22.85;15.98;;;;;;;11.33;74.91;95932.91;2010938;29;20462;-59
2023/06/18 03:15:06;;;;;;;20.95;14.77;;;;;;;11.26;74.66;95933.22;2010040;29;20513;-59
2023/06/18 03:16:08;;;;;;;21.27;16.02;;;;;;;11.27;75.01;95940.09;2010299;29;20057;-59
2023/06/18 03:17:09;;;;;;;21.75;17.13;;;;;;;11.27;74.44;95929.69;2009752;29;20046;-59
2023/06/18 03:18:11;;;;;;;23.27;15.73;;;;;;;11.27;75.62;95940.09;2009642;29;20518;-59
2023/06/18 03:19:13;;;;;;;18.23;14.55;;;;;;;11.29;74.43;95941.78;2009418;29;20506;-58
2023/06/18 03:20:18;;;;;;;20.90;15.32;;;;;;;11.29;75.36;95945.22;2009358;29;20119;-59
2023/06/18 03:21:22;;;;;;;23.92;15.50;;;;;;;11.29;75.20;95942.63;2010040;29;20058;-59
2023/06/18 03:22:25;;;;;;;20.08;15.48;;;;;;;11.29;74.68;95947.00;2009656;29;20409;-59
2023/06/18 03:23:27;;;;;;;18.85;15.27;;;;;;;11.27;74.79;95941.84;2017360;29;20398;-59
2023/06/18 03:24:28;;;;;;;22.20;16.25;;;;;;;11.32;74.51;95945.06;2017139;29;20061;-59
2023/06/18 03:25:29;;;;;;;20.10;15.95;;;;;;;11.31;74.71;95946.00;2017832;29;20072;-59
2023/06/18 03:26:30;;;;;;;20.02;15.75;;;;;;;11.30;74.61;95943.47;2016603;29;20508;-59
2023/06/18 03:27:31;;;;;;;22.90;15.00;;;;;;;11.30;74.83;95948.66;2009461;29;20057;-59
2023/06/18 03:28:33;;;;;;;22.52;15.85;;;;;;;11.32;74.98;95946.84;2009448;29;20061;-59
2023/06/18 03:29:36;;;;;;;19.52;14.80;;;;;;;11.32;74.09;95947.66;2017113;29;20123;-59
2023/06/18 03:30:38;;;;;;;19.48;14.77;;;;;;;11.27;74.27;95940.09;2017856;29;20064;-59
2023/06/18 03:31:40;;;;;;;19.45;15.00;;;;;;;11.38;73.88;95943.91;2017233;29;20041;-59
2023/06/18 03:32:43;;;;;;;18.58;14.32;;;;;;;11.41;74.36;95943.75;2009629;29;20065;-59
2023/06/18 03:33:44;;;;;;;18.98;14.07;;;;;;;11.43;74.15;95944.53;2001767;29;20058;-58
2023/06/18 03:34:48;;;;;;;21.23;15.05;;;;;;;11.50;73.15;95943.28;2001981;29;20172;-59
2023/06/18 03:35:53;;;;;;;18.77;15.07;;;;;;;11.53;73.25;95943.13;2010153;29;20509;-59
2023/06/18 03:36:54;;;;;;;19.85;14.85;;;;;;;11.49;72.78;95941.59;2018210;29;20080;-59
2023/06/18 03:37:57;;;;;;;20.55;14.98;;;;;;;11.53;72.68;95940.53;2018782;29;20053;-60
2023/06/18 03:38:59;;;;;;;18.42;14.85;;;;;;;11.55;72.58;95948.25;2010981;29;20061;-59
2023/06/18 03:40:03;;;;;;;19.15;14.52;;;;;;;11.53;72.83;95945.72;2010813;29;20049;-59
2023/06/18 03:41:04;;;;;;;17.77;14.50;;;;;;;11.56;72.61;95955.97;2018847;29;20055;-59
2023/06/18 03:42:05;;;;;;;20.77;15.73;;;;;;;11.56;72.97;95950.78;2018824;29;20506;-59
2023/06/18 03:43:07;;;;;;;20.50;15.63;;;;;;;11.56;72.94;95953.38;2018707;29;20385;-59
2023/06/18 03:44:08;;;;;;;20.40;14.98;;;;;;;11.57;72.62;95951.59;2018507;29;20525;-59
2023/06/18 03:45:09;;;;;;;20.08;15.93;;;;;;;11.56;72.05;95953.38;2018162;29;20045;-59
2023/06/18 03:46:11;;;;;;;18.90;14.32;;;;;;;11.45;72.60;95935.72;2018379;29;20411;-59
2023/06/18 03:47:12;;;;;;;19.83;14.93;;;;;;;11.56;73.02;95958.56;2011184;29;20060;-58
2023/06/18 03:48:13;;;;;;;19.67;14.57;;;;;;;11.57;72.99;95955.03;2010764;29;20045;-59
2023/06/18 03:49:18;;;;;;;18.67;15.43;;;;;;;11.58;72.47;95948.09;2018647;29;20478;-59
2023/06/18 03:50:19;;;;;;;22.30;14.77;;;;;;;11.57;72.61;95952.44;2018510;29;20473;-59
2023/06/18 03:51:20;;;;;;;21.65;14.95;;;;;;;11.61;72.18;95950.53;2010737;29;20050;-59
2023/06/18 03:52:21;;;;;;;17.65;15.18;;;;;;;11.63;72.92;95957.34;2018551;29;20060;-59
2023/06/18 03:53:24;;;;;;;18.25;14.45;;;;;;;11.65;72.40;95954.66;2017712;29;20478;-59
2023/06/18 03:54:26;;;;;;;20.45;13.68;;;;;;;11.66;71.69;95956.34;2010837;29;20481;-59
2023/06/18 03:55:27;;;;;;;20.88;15.20;;;;;;;11.67;71.91;95958.00;2017843;29;20064;-59
2023/06/18 03:56:28;;;;;;;21.83;15.52;;;;;;;11.66;72.40;95953.75;2018527;29;20434;-59
2023/06/18 03:57:30;;;;;;;20.60;14.30;;;;;;;11.67;72.18;95953.66;2003455;29;20046;-59
2023/06/18 03:58:32;;;;;;;22.60;15.00;;;;;;;11.68;71.99;95959.69;2003112;29;20054;-59
2023/06/18 03:59:33;;;;;;;18.98;15.15;;;;;;;11.66;72.34;95949.38;2018418;29;20049;-59
2023/06/18 04:00:35;;;;;;;21.70;15.15;;;;;;;11.62;72.47;95950.44;2018750;29;20392;-59
2023/06/18 04:01:37;;;;;;;17.48;14.32;;;;;;;11.68;71.99;95954.47;2018307;29;20536;-59
2023/06/18 04:02:38;;;;;;;16.70;14.68;;;;;;;11.67;71.90;95958.00;2010684;29;20478;-59
2023/06/18 04:03:43;;;;;;;18.70;15.57;;;;;;;11.69;72.20;95953.59;2011311;29;20061;-59
2023/06/18 04:04:45;;;;;;;17.92;13.85;;;;;;;11.60;71.44;95936.69;2018588;29;20053;-59
2023/06/18 04:05:46;;;;;;;20.17;14.68;;;;;;;11.70;71.84;95953.47;2018406;29;20048;-59
2023/06/18 04:06:47;;;;;;;19.45;15.27;;;;;;;11.61;72.35;95937.53;2018307;29;20463;-59
2023/06/18 04:07:48;;;;;;;17.98;14.43;;;;;;;11.70;71.66;95950.03;2018064;29;20060;-59
2023/06/18 04:08:51;;;;;;;20.42;15.40;;;;;;;11.70;72.68;95950.03;2010955;29;20379;-59
2023/06/18 04:09:52;;;;;;;19.13;13.90;;;;;;;11.67;72.22;95948.44;2018176;29;20470;-59
2023/06/18 04:10:53;;;;;;;17.27;14.38;;;;;;;11.69;72.95;95953.59;2017721;29;20068;-59
2023/06/18 04:11:55;;;;;;;20.55;14.25;;;;;;;11.68;72.74;95955.34;2010347;29;20060;-59
2023/06/18 04:12:56;;;;;;;17.38;14.32;;;;;;;11.69;72.70;95961.38;2010652;29;20057;-59
2023/06/18 04:13:58;;;;;;;20.60;14.55;;;;;;;11.69;73.20;95958.78;2010572;29;20060;-59
2023/06/18 04:14:59;;;;;;;20.67;15.05;;;;;;;11.71;72.52;95962.16;2010557;29;20050;-59
2023/06/18 04:16:03;;;;;;;20.30;14.38;;;;;;;11.74;72.59;95959.38;2010373;29;20053;-59
2023/06/18 04:17:05;;;;;;;15.98;13.45;;;;;;;11.74;72.83;95955.94;2010673;29;20060;-59
2023/06/18 04:18:09;;;;;;;16.67;13.68;;;;;;;11.67;72.59;95940.63;2010558;29;20451;-59
2023/06/18 04:19:10;;;;;;;18.85;14.20;;;;;;;11.77;71.76;95951.41;2018350;29;20481;-59
2023/06/18 04:20:12;;;;;;;19.17;15.10;;;;;;;11.80;72.01;95959.06;2017930;29;20052;-59
2023/06/18 04:21:15;;;;;;;17.65;13.18;;;;;;;11.83;72.28;95952.84;2010769;29;20060;-59
2023/06/18 04:22:16;;;;;;;17.38;13.68;;;;;;;11.84;72.33;95959.72;2010820;29;20046;-59
2023/06/18 04:23:18;;;;;;;19.02;14.02;;;;;;;11.87;72.40;95952.66;2010938;29;20057;-59
2023/06/18 04:24:19;;;;;;;16.13;13.68;;;;;;;11.88;71.74;95951.72;2010703;29;20535;-59
2023/06/18 04:25:20;;;;;;;17.65;14.45;;;;;;;11.93;71.46;95961.88;2010726;29;20061;-59
2023/06/18 04:26:24;;;;;;;21.48;14.25;;;;;;;11.96;71.48;95953.91;2010709;29;20056;-59
2023/06/18 04:27:25;;;;;;;16.98;13.45;;;;;;;11.93;70.83;95938.47;2010595;29;20192;-59
2023/06/18 04:28:27;;;;;;;16.00;14.00;;;;;;;12.03;70.94;95950.06;2009956;29;20060;-59
2023/06/18 04:29:28;;;;;;;18.98;13.63;;;;;;;12.12;70.44;95949.56;2018279;29;20056;-59
2023/06/18 04:30:29;;;;;;;21.23;13.23;;;;;;;12.20;70.77;95956.13;2017679;29;20083;-59
2023/06/18 04:31:30;;;;;;;19.83;13.88;;;;;;;12.28;70.86;95956.56;2010769;29;20169;-59
2023/06/18 04:32:31;;;;;;;16.15;12.93;;;;;;;12.34;70.07;95959.63;2010745;29;20045;-59
2023/06/18 04:33:33;;;;;;;16.55;13.52;;;;;;;12.40;70.29;95962.84;2010512;29;20109;-59
2023/06/18 04:34:34;;;;;;;19.75;13.90;;;;;;;12.44;69.88;95956.56;2010487;29;20530;-59
2023/06/18 04:35:35;;;;;;;18.85;14.05;;;;;;;12.46;68.96;95958.16;2010352;29;20049;-59
2023/06/18 04:36:37;;;;;;;18.05;13.82;;;;;;;12.54;69.28;95961.16;2010393;29;20065;-59
2023/06/18 04:37:38;;;;;;;18.70;13.45;;;;;;;12.58;68.47;95962.66;2010467;29;20045;-58
2023/06/18 04:38:40;;;;;;;20.05;14.05;;;;;;;12.63;68.69;95959.81;2017550;29;20445;-59
2023/06/18 04:39:41;;;;;;;19.52;13.80;;;;;;;12.64;68.86;95956.25;2018146;29;20049;-59
2023/06/18 04:40:42;;;;;;;22.38;14.25;;;;;;;12.60;68.06;95946.13;2018201;29;20052;-59
2023/06/18 04:41:44;;;;;;;18.20;14.32;;;;;;;12.71;68.20;95956.78;2010602;29;20520;-59
2023/06/18 04:42:45;;;;;;;20.55;13.80;;;;;;;12.73;67.51;95965.34;2010604;29;20084;-59
2023/06/18 04:43:51;;;;;;;22.45;14.32;;;;;;;12.75;67.88;95964.34;2010556;29;20053;-59
2023/06/18 04:44:53;;;;;;;19.17;14.40;;;;;;;12.76;68.09;95962.56;2002984;29;20061;-59
2023/06/18 04:45:54;;;;;;;19.67;14.48;;;;;;;12.77;68.19;95956.41;2010410;29;20041;-59
2023/06/18 04:46:57;;;;;;;19.25;11.95;;;;;;;12.83;67.99;95956.09;2018203;29;20044;-59